Nissos Mykonos — SYJZ — position and weather

sailwx.info

Track history (hours):
 
Tides and Currents Weather Stations Pressure Air Temp Water Temp Dewpoint Dewpoint Depression Visibility Wind Speed Wind Dir Waves Ship Positions

Nissos Mykonos

Last reported at 2014-Sep-03 06:06 UTC. Time now 2014-Sep-03 07:25 UTC.
Position N 37°38' E 023°48'.

Length 141 m; draft 5.6 m.

Type: Passenger vessel. MMSI: 240389000.

Date/timePositionNaut miles runAvg speedWind from/ knotsBaromVisibWave heightAir tempDewpointWater temp
2014-Sep-03 06:06N 37°38' E 023°48'1323.1
2014-Sep-03 05:33N 37°48' E 023°38'8 8.4
2014-Sep-03 04:33N 37°57' E 023°38'0 0.0
2014-Sep-03 03:33N 37°57' E 023°38'0 0.0
2014-Sep-03 02:33N 37°57' E 023°38'0 0.0
2014-Sep-03 01:33N 37°57' E 023°38'0 0.0
2014-Sep-02 22:33N 37°57' E 023°38'0 0.0
2014-Sep-02 21:29N 37°57' E 023°38'0 0.0
2014-Sep-02 20:33N 37°57' E 023°38'8 8.0
2014-Sep-02 19:33N 37°49' E 023°41'3422.9
2014-Sep-02 18:05N 37°29' E 024°15'1424.2
2014-Sep-02 17:31N 37°30' E 024°33'1919.5
2014-Sep-02 16:31N 37°26' E 024°57'1414.4
2014-Sep-02 15:33N 37°27' E 025°14'1212.1
2014-Sep-02 14:33N 37°31' E 025°29'2524.7
2014-Sep-02 13:34N 37°30' E 025°60'1 0.4
2014-Sep-02 11:23N 37°30' E 025°59'2124.2
2014-Sep-02 10:32N 37°31' E 025°33'1111.4
2014-Sep-02 09:34N 37°28' E 025°19'1814.9
2014-Sep-02 08:21N 37°30' E 024°57'1923.9
2014-Sep-02 07:33N 37°31' E 024°33'2924.6
2014-Sep-02 06:22N 37°36' E 023°57'1822.9
2014-Sep-02 05:33N 37°48' E 023°38'9 7.0
2014-Sep-02 04:18N 37°57' E 023°38'0 0.0
2014-Sep-02 03:32N 37°57' E 023°38'0 0.0
2014-Sep-01 22:30N 37°57' E 023°38'1717.6
2014-Sep-01 21:34N 37°41' E 023°45'3123.9
2014-Sep-01 20:15N 37°31' E 024°23'1724.6
2014-Sep-01 19:33N 37°31' E 024°44'1412.5
2014-Sep-01 18:24N 37°27' E 025°01'1416.7
2014-Sep-01 17:33N 37°28' E 025°19'2120.4
2014-Sep-01 16:33N 37°35' E 025°44'2217.4
2014-Sep-01 15:15N 37°38' E 026°12'1723.7
2014-Sep-01 14:33N 37°45' E 026°31'4912.2
2014-Sep-01 10:33N 37°35' E 025°30'1212.0
2014-Sep-01 09:34N 37°27' E 025°19'1717.2
2014-Sep-01 08:33N 37°26' E 024°57'2120.6
2014-Sep-01 07:32N 37°31' E 024°31'3424.4
2014-Sep-01 06:09N 37°38' E 023°50'1322.8
2014-Sep-01 05:33N 37°48' E 023°38'8 8.5
2014-Sep-01 04:33N 37°57' E 023°38'0 0.0
2014-Sep-01 03:33N 37°57' E 023°38'0 0.0
2014-Sep-01 02:33N 37°57' E 023°38'0 0.0
2014-Sep-01 01:33N 37°57' E 023°38'0 0.0
2014-Sep-01 00:33N 37°57' E 023°38'0 0.0
2014-Aug-31 23:33N 37°57' E 023°38'3 2.8
2014-Aug-31 22:34N 37°54' E 023°38'4421.8
2014-Aug-31 20:33N 37°32' E 024°25'2623.1
2014-Aug-31 19:27N 37°29' E 024°57'1111.9
2014-Aug-31 18:34N 37°28' E 025°11'1211.6
2014-Aug-31 17:33N 37°34' E 025°24'1 0.2
2014-Aug-31 10:19N 37°33' E 025°23'6 8.0
2014-Aug-31 09:32N 37°28' E 025°18'1714.6
2014-Aug-31 08:25N 37°30' E 024°57'5423.6
2014-Aug-31 06:07N 37°38' E 023°49'1323.1
2014-Aug-31 05:34N 37°48' E 023°39'9 8.9
2014-Aug-31 04:33N 37°57' E 023°38'0 0.0
2014-Aug-31 03:33N 37°57' E 023°38'0 0.0
2014-Aug-31 02:33N 37°57' E 023°38'0 0.0
2014-Aug-31 01:33N 37°57' E 023°38'0 0.0
2014-Aug-31 00:33N 37°57' E 023°38'0 0.0
2014-Aug-30 23:33N 37°57' E 023°38'0 0.0
2014-Aug-30 22:33N 37°57' E 023°38'0 0.0
2014-Aug-30 21:33N 37°57' E 023°38'0 0.0
2014-Aug-30 20:33N 37°57' E 023°38'1515.4
2014-Aug-30 19:34N 37°42' E 023°45'5919.1
2014-Aug-30 16:27N 37°26' E 024°57'1819.8
2014-Aug-30 15:33N 37°28' E 025°19'6 1.2
2014-Aug-30 10:31N 37°33' E 025°23'1010.1
2014-Aug-30 09:32N 37°28' E 025°13'6119.1
2014-Aug-30 06:22N 37°36' E 023°57'1922.8
2014-Aug-30 05:33N 37°48' E 023°38'9 8.9
2014-Aug-30 04:33N 37°57' E 023°38'0 0.0
2014-Aug-30 03:33N 37°57' E 023°38'0 0.0
2014-Aug-30 02:33N 37°57' E 023°38'0 0.0
2014-Aug-30 01:33N 37°57' E 023°38'0 0.0
2014-Aug-30 00:33N 37°57' E 023°38'0 0.0
2014-Aug-29 23:33N 37°57' E 023°38'4 4.2
2014-Aug-29 22:33N 37°52' E 023°39'6722.1
2014-Aug-29 19:33N 37°29' E 024°57'1312.9
2014-Aug-29 18:34N 37°30' E 025°13'1413.8
2014-Aug-29 17:34N 37°35' E 025°29'3818.3
2014-Aug-29 15:27N 37°41' E 026°17'44 8.7
2014-Aug-29 10:26N 37°33' E 025°23'9 9.9
2014-Aug-29 09:34N 37°28' E 025°14'1412.9
2014-Aug-29 08:28N 37°30' E 024°57'2223.2
2014-Aug-29 07:32N 37°32' E 024°30'3323.8
2014-Aug-29 06:10N 37°38' E 023°50'1422.9
2014-Aug-29 05:33N 37°49' E 023°38'8 7.9
2014-Aug-29 04:33N 37°57' E 023°38'0 0.0
2014-Aug-29 03:34N 37°57' E 023°38'0 0.0
2014-Aug-29 02:34N 37°57' E 023°38'0 0.0
2014-Aug-29 01:34N 37°57' E 023°38'0 0.0
2014-Aug-29 00:34N 37°57' E 023°38'0 0.0
2014-Aug-28 23:34N 37°57' E 023°38'1 0.6
2014-Aug-28 22:34N 37°56' E 023°38'2019.9
2014-Aug-28 21:33N 37°39' E 023°50'2923.8
2014-Aug-28 20:19N 37°31' E 024°26'1924.8
2014-Aug-28 19:33N 37°31' E 024°50'9 8.9
2014-Aug-28 18:34N 37°27' E 024°60'1515.5
2014-Aug-28 17:34N 37°28' E 025°19'2120.1
2014-Aug-28 16:31N 37°36' E 025°44'4319.1
2014-Aug-28 14:17N 37°47' E 026°36'5 5.3
2014-Aug-28 13:25N 37°48' E 026°41'3417.6
2014-Aug-28 11:30N 37°38' E 026°00'2724.3
2014-Aug-28 10:24N 37°33' E 025°27'910.2
2014-Aug-28 09:31N 37°28' E 025°18'1714.7
2014-Aug-28 08:21N 37°30' E 024°57'1924.1
2014-Aug-28 07:34N 37°31' E 024°33'2824.4
2014-Aug-28 06:24N 37°36' E 023°57'1923.1
2014-Aug-28 05:33N 37°48' E 023°38'8 4.2
2014-Aug-28 03:33N 37°57' E 023°38'0 0.0
2014-Aug-28 02:33N 37°57' E 023°38'0 0.0
2014-Aug-28 01:33N 37°57' E 023°38'0 0.0
2014-Aug-28 00:33N 37°57' E 023°38'0 0.0
2014-Aug-27 23:34N 37°57' E 023°38'0 0.0
2014-Aug-27 22:33N 37°57' E 023°38'1615.7
2014-Aug-27 21:33N 37°42' E 023°46'2824.1
2014-Aug-27 20:24N 37°31' E 024°18'2124.7
2014-Aug-27 19:33N 37°32' E 024°44'1513.0
2014-Aug-27 18:23N 37°27' E 025°02'1416.6
2014-Aug-27 17:34N 37°28' E 025°19'2120.7
2014-Aug-27 16:32N 37°35' E 025°44'2315.7
2014-Aug-27 15:06N 37°39' E 026°12'2 0.8
2014-Aug-27 12:32N 37°40' E 026°15'4118.4
2014-Aug-27 10:20N 37°32' E 025°25'7 8.5
2014-Aug-27 09:32N 37°27' E 025°18'7120.8
2014-Aug-27 06:06N 37°38' E 023°49'1323.4
2014-Aug-27 05:33N 37°48' E 023°39'9 9.0
2014-Aug-27 04:33N 37°57' E 023°38'0 0.0
2014-Aug-27 03:33N 37°57' E 023°38'0 0.0
2014-Aug-27 02:33N 37°57' E 023°38'0 0.0
2014-Aug-27 01:33N 37°57' E 023°38'0 0.0
2014-Aug-27 00:33N 37°57' E 023°38'0 0.0
2014-Aug-26 23:33N 37°57' E 023°38'3 3.1
2014-Aug-26 22:34N 37°54' E 023°38'4421.8
2014-Aug-26 20:33N 37°32' E 024°26'2524.1
2014-Aug-26 19:32N 37°29' E 024°57'1313.0
2014-Aug-26 18:33N 37°29' E 025°13'1211.7
2014-Aug-26 17:34N 37°34' E 025°26'2622.7
2014-Aug-26 16:24N 37°30' E 025°58'1719.7
2014-Aug-26 15:33N 37°37' E 026°18'1412.8
2014-Aug-26 14:30N 37°44' E 026°32'8 8.4
2014-Aug-26 13:33N 37°48' E 026°41'2221.3
2014-Aug-26 12:32N 37°37' E 026°18'3919.3
2014-Aug-26 10:31N 37°35' E 025°29'1111.7
2014-Aug-26 09:33N 37°28' E 025°17'1614.4
2014-Aug-26 08:25N 37°30' E 024°57'2123.6
2014-Aug-26 07:32N 37°31' E 024°30'3324.3
2014-Aug-26 06:11N 37°37' E 023°50'1523.7
2014-Aug-26 05:33N 37°49' E 023°38'8 7.7
2014-Aug-26 04:33N 37°57' E 023°38'0 0.0
2014-Aug-26 03:33N 37°57' E 023°38'0 0.0
2014-Aug-26 02:33N 37°57' E 023°38'0 0.0
2014-Aug-26 01:33N 37°57' E 023°38'0 0.0
2014-Aug-26 00:33N 37°57' E 023°38'0 0.0
2014-Aug-25 23:33N 37°57' E 023°38'0 0.0
2014-Aug-25 22:33N 37°57' E 023°38'1917.9
2014-Aug-25 21:31N 37°40' E 023°48'2923.9
2014-Aug-25 20:19N 37°31' E 024°23'2024.7
2014-Aug-25 19:31N 37°31' E 024°48'1111.1
2014-Aug-25 18:33N 37°27' E 025°00'1414.3
2014-Aug-25 17:34N 37°28' E 025°18'2423.1
2014-Aug-25 16:31N 37°35' E 025°47'2115.5
2014-Aug-25 15:10N 37°39' E 026°13'1422.9
2014-Aug-25 14:33N 37°45' E 026°29'10 8.8
2014-Aug-25 13:27N 37°48' E 026°41'2323.1
2014-Aug-25 12:28N 37°39' E 026°14'1011.0
2014-Aug-25 11:33N 37°38' E 026°01'2524.8
2014-Aug-25 10:33N 37°34' E 025°31'1312.9
2014-Aug-25 09:34N 37°27' E 025°16'1614.6
2014-Aug-25 08:30N 37°30' E 024°57'2223.9
2014-Aug-25 07:34N 37°31' E 024°29'4421.8
2014-Aug-25 05:33N 37°49' E 023°38'8 1.1
2014-Aug-24 22:30N 37°56' E 023°38'1919.8
2014-Aug-24 21:33N 37°40' E 023°49'2923.9
2014-Aug-24 20:20N 37°31' E 024°24'2024.5
2014-Aug-24 19:32N 37°31' E 024°48'1312.8
2014-Aug-24 18:33N 37°27' E 025°03'1615.5
2014-Aug-24 17:32N 37°31' E 025°22'3024.6
2014-Aug-24 16:18N 37°38' E 025°59'1111.8
2014-Aug-24 15:22N 37°39' E 026°13'2124.4
2014-Aug-24 14:30N 37°48' E 026°37'3 2.8
2014-Aug-24 13:26N 37°48' E 026°41'2124.2
2014-Aug-24 12:33N 37°40' E 026°16'10 9.8
2014-Aug-24 11:32N 37°39' E 026°03'2924.8
2014-Aug-24 10:22N 37°32' E 025°28'810.1
2014-Aug-24 09:33N 37°28' E 025°19'1818.3
2014-Aug-24 08:33N 37°26' E 024°57'2119.4
2014-Aug-24 07:27N 37°31' E 024°30'2224.7
2014-Aug-24 06:33N 37°34' E 024°03'  
Track history (hours):
 
Tides and Currents Weather Stations Pressure Air Temp Water Temp Dewpoint Dewpoint Depression Visibility Wind Speed Wind Dir Waves Ship Positions

Nissos Mykonos

Last reported at 2014-Sep-03 06:06 UTC. Time now 2014-Sep-03 07:25 UTC.
Position N 37°38' E 023°48'.

Length 141 m; draft 5.6 m.

Type: Passenger vessel. MMSI: 240389000.

Date/timePositionNaut miles runAvg speedWind from/ knotsBaromVisibWave heightAir tempDewpointWater temp
2014-Sep-03 06:06N 37°38' E 023°48'1323.1
2014-Sep-03 05:33N 37°48' E 023°38'8 8.4
2014-Sep-03 04:33N 37°57' E 023°38'0 0.0
2014-Sep-03 03:33N 37°57' E 023°38'0 0.0
2014-Sep-03 02:33N 37°57' E 023°38'0 0.0
2014-Sep-03 01:33N 37°57' E 023°38'0 0.0
2014-Sep-02 22:33N 37°57' E 023°38'0 0.0
2014-Sep-02 21:29N 37°57' E 023°38'0 0.0
2014-Sep-02 20:33N 37°57' E 023°38'8 8.0
2014-Sep-02 19:33N 37°49' E 023°41'3422.9
2014-Sep-02 18:05N 37°29' E 024°15'1424.2
2014-Sep-02 17:31N 37°30' E 024°33'1919.5
2014-Sep-02 16:31N 37°26' E 024°57'1414.4
2014-Sep-02 15:33N 37°27' E 025°14'1212.1
2014-Sep-02 14:33N 37°31' E 025°29'2524.7
2014-Sep-02 13:34N 37°30' E 025°60'1 0.4
2014-Sep-02 11:23N 37°30' E 025°59'2124.2
2014-Sep-02 10:32N 37°31' E 025°33'1111.4
2014-Sep-02 09:34N 37°28' E 025°19'1814.9
2014-Sep-02 08:21N 37°30' E 024°57'1923.9
2014-Sep-02 07:33N 37°31' E 024°33'2924.6
2014-Sep-02 06:22N 37°36' E 023°57'1822.9
2014-Sep-02 05:33N 37°48' E 023°38'9 7.0
2014-Sep-02 04:18N 37°57' E 023°38'0 0.0
2014-Sep-02 03:32N 37°57' E 023°38'0 0.0
2014-Sep-01 22:30N 37°57' E 023°38'1717.6
2014-Sep-01 21:34N 37°41' E 023°45'3123.9
2014-Sep-01 20:15N 37°31' E 024°23'1724.6
2014-Sep-01 19:33N 37°31' E 024°44'1412.5
2014-Sep-01 18:24N 37°27' E 025°01'1416.7
2014-Sep-01 17:33N 37°28' E 025°19'2120.4
2014-Sep-01 16:33N 37°35' E 025°44'2217.4
2014-Sep-01 15:15N 37°38' E 026°12'1723.7
2014-Sep-01 14:33N 37°45' E 026°31'4912.2
2014-Sep-01 10:33N 37°35' E 025°30'1212.0
2014-Sep-01 09:34N 37°27' E 025°19'1717.2
2014-Sep-01 08:33N 37°26' E 024°57'2120.6
2014-Sep-01 07:32N 37°31' E 024°31'3424.4
2014-Sep-01 06:09N 37°38' E 023°50'1322.8
2014-Sep-01 05:33N 37°48' E 023°38'8 8.5
2014-Sep-01 04:33N 37°57' E 023°38'0 0.0
2014-Sep-01 03:33N 37°57' E 023°38'0 0.0
2014-Sep-01 02:33N 37°57' E 023°38'0 0.0
2014-Sep-01 01:33N 37°57' E 023°38'0 0.0
2014-Sep-01 00:33N 37°57' E 023°38'0 0.0
2014-Aug-31 23:33N 37°57' E 023°38'3 2.8
2014-Aug-31 22:34N 37°54' E 023°38'4421.8
2014-Aug-31 20:33N 37°32' E 024°25'2623.1
2014-Aug-31 19:27N 37°29' E 024°57'1111.9
2014-Aug-31 18:34N 37°28' E 025°11'1211.6
2014-Aug-31 17:33N 37°34' E 025°24'1 0.2
2014-Aug-31 10:19N 37°33' E 025°23'6 8.0
2014-Aug-31 09:32N 37°28' E 025°18'1714.6
2014-Aug-31 08:25N 37°30' E 024°57'5423.6
2014-Aug-31 06:07N 37°38' E 023°49'1323.1
2014-Aug-31 05:34N 37°48' E 023°39'9 8.9
2014-Aug-31 04:33N 37°57' E 023°38'0 0.0
2014-Aug-31 03:33N 37°57' E 023°38'0 0.0
2014-Aug-31 02:33N 37°57' E 023°38'0 0.0
2014-Aug-31 01:33N 37°57' E 023°38'0 0.0
2014-Aug-31 00:33N 37°57' E 023°38'0 0.0
2014-Aug-30 23:33N 37°57' E 023°38'0 0.0
2014-Aug-30 22:33N 37°57' E 023°38'0 0.0
2014-Aug-30 21:33N 37°57' E 023°38'0 0.0
2014-Aug-30 20:33N 37°57' E 023°38'1515.4
2014-Aug-30 19:34N 37°42' E 023°45'5919.1
2014-Aug-30 16:27N 37°26' E 024°57'1819.8
2014-Aug-30 15:33N 37°28' E 025°19'6 1.2
2014-Aug-30 10:31N 37°33' E 025°23'1010.1
2014-Aug-30 09:32N 37°28' E 025°13'6119.1
2014-Aug-30 06:22N 37°36' E 023°57'1922.8
2014-Aug-30 05:33N 37°48' E 023°38'9 8.9
2014-Aug-30 04:33N 37°57' E 023°38'0 0.0
2014-Aug-30 03:33N 37°57' E 023°38'0 0.0
2014-Aug-30 02:33N 37°57' E 023°38'0 0.0
2014-Aug-30 01:33N 37°57' E 023°38'0 0.0
2014-Aug-30 00:33N 37°57' E 023°38'0 0.0
2014-Aug-29 23:33N 37°57' E 023°38'4 4.2
2014-Aug-29 22:33N 37°52' E 023°39'6722.1
2014-Aug-29 19:33N 37°29' E 024°57'1312.9
2014-Aug-29 18:34N 37°30' E 025°13'1413.8
2014-Aug-29 17:34N 37°35' E 025°29'3818.3
2014-Aug-29 15:27N 37°41' E 026°17'44 8.7
2014-Aug-29 10:26N 37°33' E 025°23'9 9.9
2014-Aug-29 09:34N 37°28' E 025°14'1412.9
2014-Aug-29 08:28N 37°30' E 024°57'2223.2
2014-Aug-29 07:32N 37°32' E 024°30'3323.8
2014-Aug-29 06:10N 37°38' E 023°50'1422.9
2014-Aug-29 05:33N 37°49' E 023°38'8 7.9
2014-Aug-29 04:33N 37°57' E 023°38'0 0.0
2014-Aug-29 03:34N 37°57' E 023°38'0 0.0
2014-Aug-29 02:34N 37°57' E 023°38'0 0.0
2014-Aug-29 01:34N 37°57' E 023°38'0 0.0
2014-Aug-29 00:34N 37°57' E 023°38'0 0.0
2014-Aug-28 23:34N 37°57' E 023°38'1 0.6
2014-Aug-28 22:34N 37°56' E 023°38'2019.9
2014-Aug-28 21:33N 37°39' E 023°50'2923.8
2014-Aug-28 20:19N 37°31' E 024°26'1924.8
2014-Aug-28 19:33N 37°31' E 024°50'9 8.9
2014-Aug-28 18:34N 37°27' E 024°60'1515.5
2014-Aug-28 17:34N 37°28' E 025°19'2120.1
2014-Aug-28 16:31N 37°36' E 025°44'4319.1
2014-Aug-28 14:17N 37°47' E 026°36'5 5.3
2014-Aug-28 13:25N 37°48' E 026°41'3417.6
2014-Aug-28 11:30N 37°38' E 026°00'2724.3
2014-Aug-28 10:24N 37°33' E 025°27'910.2
2014-Aug-28 09:31N 37°28' E 025°18'1714.7
2014-Aug-28 08:21N 37°30' E 024°57'1924.1
2014-Aug-28 07:34N 37°31' E 024°33'2824.4
2014-Aug-28 06:24N 37°36' E 023°57'1923.1
2014-Aug-28 05:33N 37°48' E 023°38'8 4.2
2014-Aug-28 03:33N 37°57' E 023°38'0 0.0
2014-Aug-28 02:33N 37°57' E 023°38'0 0.0
2014-Aug-28 01:33N 37°57' E 023°38'0 0.0
2014-Aug-28 00:33N 37°57' E 023°38'0 0.0
2014-Aug-27 23:34N 37°57' E 023°38'0 0.0
2014-Aug-27 22:33N 37°57' E 023°38'1615.7
2014-Aug-27 21:33N 37°42' E 023°46'2824.1
2014-Aug-27 20:24N 37°31' E 024°18'2124.7
2014-Aug-27 19:33N 37°32' E 024°44'1513.0
2014-Aug-27 18:23N 37°27' E 025°02'1416.6
2014-Aug-27 17:34N 37°28' E 025°19'2120.7
2014-Aug-27 16:32N 37°35' E 025°44'2315.7
2014-Aug-27 15:06N 37°39' E 026°12'2 0.8
2014-Aug-27 12:32N 37°40' E 026°15'4118.4
2014-Aug-27 10:20N 37°32' E 025°25'7 8.5
2014-Aug-27 09:32N 37°27' E 025°18'7120.8
2014-Aug-27 06:06N 37°38' E 023°49'1323.4
2014-Aug-27 05:33N 37°48' E 023°39'9 9.0
2014-Aug-27 04:33N 37°57' E 023°38'0 0.0
2014-Aug-27 03:33N 37°57' E 023°38'0 0.0
2014-Aug-27 02:33N 37°57' E 023°38'0 0.0
2014-Aug-27 01:33N 37°57' E 023°38'0 0.0
2014-Aug-27 00:33N 37°57' E 023°38'0 0.0
2014-Aug-26 23:33N 37°57' E 023°38'3 3.1
2014-Aug-26 22:34N 37°54' E 023°38'4421.8
2014-Aug-26 20:33N 37°32' E 024°26'2524.1
2014-Aug-26 19:32N 37°29' E 024°57'1313.0
2014-Aug-26 18:33N 37°29' E 025°13'1211.7
2014-Aug-26 17:34N 37°34' E 025°26'2622.7
2014-Aug-26 16:24N 37°30' E 025°58'1719.7
2014-Aug-26 15:33N 37°37' E 026°18'1412.8
2014-Aug-26 14:30N 37°44' E 026°32'8 8.4
2014-Aug-26 13:33N 37°48' E 026°41'2221.3
2014-Aug-26 12:32N 37°37' E 026°18'3919.3
2014-Aug-26 10:31N 37°35' E 025°29'1111.7
2014-Aug-26 09:33N 37°28' E 025°17'1614.4
2014-Aug-26 08:25N 37°30' E 024°57'2123.6
2014-Aug-26 07:32N 37°31' E 024°30'3324.3
2014-Aug-26 06:11N 37°37' E 023°50'1523.7
2014-Aug-26 05:33N 37°49' E 023°38'8 7.7
2014-Aug-26 04:33N 37°57' E 023°38'0 0.0
2014-Aug-26 03:33N 37°57' E 023°38'0 0.0
2014-Aug-26 02:33N 37°57' E 023°38'0 0.0
2014-Aug-26 01:33N 37°57' E 023°38'0 0.0
2014-Aug-26 00:33N 37°57' E 023°38'0 0.0
2014-Aug-25 23:33N 37°57' E 023°38'0 0.0
2014-Aug-25 22:33N 37°57' E 023°38'1917.9
2014-Aug-25 21:31N 37°40' E 023°48'2923.9
2014-Aug-25 20:19N 37°31' E 024°23'2024.7
2014-Aug-25 19:31N 37°31' E 024°48'1111.1
2014-Aug-25 18:33N 37°27' E 025°00'1414.3
2014-Aug-25 17:34N 37°28' E 025°18'2423.1
2014-Aug-25 16:31N 37°35' E 025°47'2115.5
2014-Aug-25 15:10N 37°39' E 026°13'1422.9
2014-Aug-25 14:33N 37°45' E 026°29'10 8.8
2014-Aug-25 13:27N 37°48' E 026°41'2323.1
2014-Aug-25 12:28N 37°39' E 026°14'1011.0
2014-Aug-25 11:33N 37°38' E 026°01'2524.8
2014-Aug-25 10:33N 37°34' E 025°31'1312.9
2014-Aug-25 09:34N 37°27' E 025°16'1614.6
2014-Aug-25 08:30N 37°30' E 024°57'2223.9
2014-Aug-25 07:34N 37°31' E 024°29'4421.8
2014-Aug-25 05:33N 37°49' E 023°38'8 1.1
2014-Aug-24 22:30N 37°56' E 023°38'1919.8
2014-Aug-24 21:33N 37°40' E 023°49'2923.9
2014-Aug-24 20:20N 37°31' E 024°24'2024.5
2014-Aug-24 19:32N 37°31' E 024°48'1312.8
2014-Aug-24 18:33N 37°27' E 025°03'1615.5
2014-Aug-24 17:32N 37°31' E 025°22'3024.6
2014-Aug-24 16:18N 37°38' E 025°59'1111.8
2014-Aug-24 15:22N 37°39' E 026°13'2124.4
2014-Aug-24 14:30N 37°48' E 026°37'3 2.8
2014-Aug-24 13:26N 37°48' E 026°41'2124.2
2014-Aug-24 12:33N 37°40' E 026°16'10 9.8
2014-Aug-24 11:32N 37°39' E 026°03'2924.8
2014-Aug-24 10:22N 37°32' E 025°28'810.1
2014-Aug-24 09:33N 37°28' E 025°19'1818.3
2014-Aug-24 08:33N 37°26' E 024°57'2119.4
2014-Aug-24 07:27N 37°31' E 024°30'2224.7
2014-Aug-24 06:33N 37°34' E 024°03'  

Dump ship's entire track history